Time;durP1;ratioP1;P1;durP2;ratioP2;P2;SDS_P1;SDS_P2;PMS_P1;PMS_P2;Temp;Humidity;BMP_temperature;BMP_pressure;BME280_temperature;BME280_humidity;BME280_pressure;Samples;Min_cycle;Max_cycle;Signal;HPM_P1;HPM_P2
2023/05/23 00:01:38;;;;;;;;;;;16.60;81.40;;;;;;5015403;28;19920;-85
2023/05/23 00:04:04;;;;;;;;;;;16.60;81.50;;;;;;5012725;28;20339;-85
2023/05/23 00:06:30;;;;;;;;;;;16.60;81.60;;;;;;5045295;28;19921;-85
2023/05/23 00:08:55;;;;;;;;;;;16.60;81.70;;;;;;5041021;28;19917;-84
2023/05/23 00:11:25;;;;;;;;;;;16.70;81.30;;;;;;5018148;28;19917;-85
2023/05/23 00:13:54;;;;;;;;;;;16.60;80.90;;;;;;5016103;28;19913;-84
2023/05/23 00:16:21;;;;;;;;;;;16.80;80.60;;;;;;5014301;28;19917;-85
2023/05/23 00:18:49;;;;;;;;;;;16.70;80.90;;;;;;5033829;28;19921;-85
2023/05/23 00:21:14;;;;;;;;;;;16.60;81.00;;;;;;5031873;28;19920;-84
2023/05/23 00:23:43;;;;;;;;;;;16.60;81.30;;;;;;5042034;28;19917;-85
2023/05/23 00:26:08;;;;;;;;;;;16.70;80.90;;;;;;5014098;28;20303;-85
2023/05/23 00:28:34;;;;;;;;;;;16.60;80.80;;;;;;5047691;28;19917;-85
2023/05/23 00:30:59;;;;;;;;;;;16.60;80.60;;;;;;5011596;28;20295;-85
2023/05/23 00:33:25;;;;;;;;;;;16.60;80.40;;;;;;5014562;28;19913;-85
2023/05/23 00:35:50;;;;;;;;;;;16.50;80.40;;;;;;5017461;28;19913;-84
2023/05/23 00:38:16;;;;;;;;;;;16.50;80.60;;;;;;5013992;28;19913;-86
2023/05/23 00:40:41;;;;;;;;;;;16.50;79.90;;;;;;5038095;28;20309;-85
2023/05/23 00:43:07;;;;;;;;;;;16.50;79.10;;;;;;5031805;28;20389;-85
2023/05/23 00:45:33;;;;;;;;;;;16.40;78.80;;;;;;5008748;28;19996;-84
2023/05/23 00:47:59;;;;;;;;;;;16.30;79.00;;;;;;5029871;28;19926;-85
2023/05/23 00:50:28;;;;;;;;;;;16.30;78.90;;;;;;5015286;28;19944;-84
2023/05/23 00:52:54;;;;;;;;;;;16.30;78.70;;;;;;5035331;28;19924;-85
2023/05/23 00:55:19;;;;;;;;;;;16.20;78.70;;;;;;5021202;28;20375;-84
2023/05/23 00:57:45;;;;;;;;;;;16.10;78.30;;;;;;5032550;28;19913;-84
2023/05/23 01:00:11;;;;;;;;;;;16.10;78.50;;;;;;5017534;28;19945;-84
2023/05/23 01:02:46;;;;;;;;;;;16.00;79.30;;;;;;5035887;28;19920;-84
2023/05/23 01:05:13;;;;;;;;;;;16.00;78.60;;;;;;5011831;28;19914;-84
2023/05/23 01:07:42;;;;;;;;;;;15.80;79.20;;;;;;5018633;28;20286;-84
2023/05/23 01:10:09;;;;;;;;;;;15.90;78.90;;;;;;5015849;28;20008;-84
2023/05/23 01:12:39;;;;;;;;;;;15.90;79.00;;;;;;5014342;28;19916;-85
2023/05/23 01:15:07;;;;;;;;;;;15.90;78.60;;;;;;5033159;28;19974;-85
2023/05/23 01:17:43;;;;;;;;;;;15.80;79.40;;;;;;5012325;28;19921;-85
2023/05/23 01:20:32;;;;;;;;;;;15.80;79.60;;;;;;5013898;28;19917;-85
2023/05/23 01:23:00;;;;;;;;;;;15.90;79.50;;;;;;5003695;28;20325;-85
2023/05/23 01:25:45;;;;;;;;;;;15.90;79.70;;;;;;5031420;28;20338;-85
2023/05/23 01:28:14;;;;;;;;;;;16.00;79.10;;;;;;5029717;28;19924;-84
2023/05/23 01:30:40;;;;;;;;;;;16.10;78.80;;;;;;5032462;28;20011;-86
2023/05/23 01:33:07;;;;;;;;;;;16.00;79.60;;;;;;5029123;28;20454;-84
2023/05/23 01:35:32;;;;;;;;;;;16.00;79.20;;;;;;5011657;28;19940;-85
2023/05/23 01:37:58;;;;;;;;;;;16.00;79.50;;;;;;5015118;28;20384;-85
2023/05/23 01:40:23;;;;;;;;;;;15.90;79.20;;;;;;5006726;28;19960;-86
2023/05/23 01:42:49;;;;;;;;;;;16.00;79.50;;;;;;5032702;28;19913;-85
2023/05/23 01:45:16;;;;;;;;;;;16.00;79.60;;;;;;5032354;28;20015;-85
2023/05/23 01:47:42;;;;;;;;;;;16.10;79.20;;;;;;5014064;28;19960;-85
2023/05/23 01:50:08;;;;;;;;;;;16.10;79.70;;;;;;5032364;28;19909;-85
2023/05/23 01:52:34;;;;;;;;;;;16.10;79.20;;;;;;5029760;28;19924;-86
2023/05/23 01:55:00;;;;;;;;;;;16.20;79.20;;;;;;5013288;28;19917;-85
2023/05/23 01:57:26;;;;;;;;;;;16.10;79.50;;;;;;5017226;28;19913;-86
2023/05/23 01:59:52;;;;;;;;;;;16.20;79.70;;;;;;5025545;28;20004;-85
2023/05/23 02:02:17;;;;;;;;;;;16.30;79.10;;;;;;5011819;28;20016;-85
2023/05/23 02:04:43;;;;;;;;;;;16.30;78.70;;;;;;5013625;28;19913;-86
2023/05/23 02:07:08;;;;;;;;;;;16.20;78.90;;;;;;5015147;28;19913;-85
2023/05/23 02:09:34;;;;;;;;;;;16.10;79.30;;;;;;5013322;28;19917;-85
2023/05/23 02:12:00;;;;;;;;;;;16.10;79.10;;;;;;5013948;28;19917;-85
2023/05/23 02:14:27;;;;;;;;;;;16.20;79.50;;;;;;5014208;28;19909;-85
2023/05/23 02:16:52;;;;;;;;;;;16.10;79.30;;;;;;5012816;28;19913;-85
2023/05/23 02:19:18;;;;;;;;;;;16.10;79.80;;;;;;5017140;28;19921;-85
2023/05/23 02:21:43;;;;;;;;;;;16.10;79.50;;;;;;5030081;28;19932;-86
2023/05/23 02:24:10;;;;;;;;;;;16.10;79.80;;;;;;5028929;28;20301;-85
2023/05/23 02:26:35;;;;;;;;;;;16.20;79.40;;;;;;5012476;28;19913;-85
2023/05/23 02:29:01;;;;;;;;;;;16.10;79.80;;;;;;5013636;28;19996;-86
2023/05/23 02:31:27;;;;;;;;;;;16.10;80.40;;;;;;5012106;28;19949;-85
2023/05/23 02:33:52;;;;;;;;;;;16.10;80.20;;;;;;5019394;28;19913;-86
2023/05/23 02:36:18;;;;;;;;;;;16.00;80.30;;;;;;5018036;28;19914;-86
2023/05/23 02:38:43;;;;;;;;;;;16.00;80.60;;;;;;5017072;28;19913;-86
2023/05/23 02:41:09;;;;;;;;;;;16.00;80.70;;;;;;5033071;28;20359;-85
2023/05/23 02:43:34;;;;;;;;;;;15.90;81.10;;;;;;5035267;28;19909;-86
2023/05/23 02:46:00;;;;;;;;;;;16.00;80.90;;;;;;5015262;28;19921;-86
2023/05/23 02:48:25;;;;;;;;;;;16.00;80.80;;;;;;5030379;28;20203;-85
2023/05/23 02:50:51;;;;;;;;;;;16.10;80.50;;;;;;5034318;28;19924;-85
2023/05/23 02:53:17;;;;;;;;;;;16.00;81.00;;;;;;5028405;28;19913;-85
2023/05/23 02:55:42;;;;;;;;;;;16.00;81.10;;;;;;5019563;28;19910;-86
2023/05/23 02:58:07;;;;;;;;;;;16.00;81.30;;;;;;5016115;28;20003;-86
2023/05/23 03:00:33;;;;;;;;;;;15.90;81.50;;;;;;5016209;28;19909;-86
2023/05/23 03:02:59;;;;;;;;;;;16.00;81.50;;;;;;5032872;28;19920;-86
2023/05/23 03:05:24;;;;;;;;;;;15.90;81.80;;;;;;5014698;28;19909;-86
2023/05/23 03:07:51;;;;;;;;;;;15.90;81.60;;;;;;5010218;28;20307;-86
2023/05/23 03:10:16;;;;;;;;;;;15.90;82.00;;;;;;5035192;28;19967;-86
2023/05/23 03:12:42;;;;;;;;;;;16.00;81.60;;;;;;5015996;28;19913;-86
2023/05/23 03:15:08;;;;;;;;;;;16.00;81.50;;;;;;5020945;28;19920;-85
2023/05/23 03:17:34;;;;;;;;;;;16.00;81.50;;;;;;5030626;28;20392;-85
2023/05/23 03:19:59;;;;;;;;;;;15.90;81.60;;;;;;5033300;28;19921;-85
2023/05/23 03:22:25;;;;;;;;;;;15.90;81.70;;;;;;5033939;28;19909;-86
2023/05/23 03:24:50;;;;;;;;;;;15.90;81.70;;;;;;5016506;28;19917;-85
2023/05/23 03:27:15;;;;;;;;;;;16.00;81.30;;;;;;5033683;28;19911;-85
2023/05/23 03:29:41;;;;;;;;;;;15.80;81.50;;;;;;5033687;28;19917;-85
2023/05/23 03:32:06;;;;;;;;;;;15.70;81.40;;;;;;5028740;28;19916;-86
2023/05/23 03:34:32;;;;;;;;;;;15.60;81.90;;;;;;5033838;28;20255;-85
2023/05/23 03:36:58;;;;;;;;;;;15.70;81.60;;;;;;5021108;28;20509;-85
2023/05/23 03:39:24;;;;;;;;;;;15.70;81.20;;;;;;5033991;28;19921;-85
2023/05/23 03:41:49;;;;;;;;;;;15.60;81.50;;;;;;5015886;28;19955;-85
2023/05/23 03:44:15;;;;;;;;;;;15.50;82.00;;;;;;5012833;28;19922;-85
2023/05/23 03:46:40;;;;;;;;;;;15.50;82.30;;;;;;5011784;28;19992;-85
2023/05/23 03:49:06;;;;;;;;;;;15.60;81.60;;;;;;5013697;28;19964;-85
2023/05/23 03:51:31;;;;;;;;;;;15.60;81.70;;;;;;5031322;28;19921;-86
2023/05/23 03:53:57;;;;;;;;;;;15.50;82.00;;;;;;5020972;28;20432;-85
2023/05/23 03:56:22;;;;;;;;;;;15.50;82.30;;;;;;5023283;28;19940;-85
2023/05/23 03:58:47;;;;;;;;;;;15.60;81.70;;;;;;5022173;28;20000;-85
2023/05/23 04:01:13;;;;;;;;;;;15.50;82.00;;;;;;5029764;28;19918;-85
2023/05/23 04:03:38;;;;;;;;;;;15.50;81.80;;;;;;5022603;28;20302;-86
2023/05/23 04:06:04;;;;;;;;;;;15.50;82.10;;;;;;5029604;28;19920;-86
2023/05/23 04:08:32;;;;;;;;;;;15.60;81.90;;;;;;5028487;28;19921;-86
2023/05/23 04:10:59;;;;;;;;;;;15.50;82.10;;;;;;5011733;28;19913;-86
2023/05/23 04:13:25;;;;;;;;;;;15.40;82.40;;;;;;5016237;28;19959;-88
2023/05/23 04:15:51;;;;;;;;;;;15.30;83.10;;;;;;5029902;28;20387;-88
2023/05/23 04:18:16;;;;;;;;;;;15.50;82.80;;;;;;5016318;28;19948;-86
2023/05/23 04:20:42;;;;;;;;;;;15.40;83.20;;;;;;5034535;28;19913;-87
2023/05/23 04:23:07;;;;;;;;;;;15.30;83.50;;;;;;5013578;28;19932;-85
2023/05/23 04:25:33;;;;;;;;;;;15.30;83.80;;;;;;5013189;28;20349;-87
2023/05/23 04:27:59;;;;;;;;;;;15.30;84.20;;;;;;5014958;28;19928;-86
2023/05/23 04:30:25;;;;;;;;;;;15.20;84.00;;;;;;5013851;28;19974;-85
2023/05/23 04:32:51;;;;;;;;;;;15.20;84.00;;;;;;5012226;28;20410;-83
2023/05/23 04:35:16;;;;;;;;;;;15.20;84.00;;;;;;5012891;28;20301;-84
2023/05/23 04:37:41;;;;;;;;;;;15.20;83.70;;;;;;5014936;28;19913;-85
2023/05/23 04:40:10;;;;;;;;;;;15.30;83.80;;;;;;5031336;28;19974;-86
2023/05/23 04:42:35;;;;;;;;;;;15.30;83.60;;;;;;5031121;28;19974;-86
2023/05/23 04:45:02;;;;;;;;;;;15.30;83.70;;;;;;5013574;28;19917;-85
2023/05/23 04:47:28;;;;;;;;;;;15.40;83.40;;;;;;5015345;28;19917;-85
2023/05/23 04:49:54;;;;;;;;;;;15.40;83.50;;;;;;5038828;28;20354;-86
2023/05/23 04:52:19;;;;;;;;;;;15.50;82.90;;;;;;4115109;23;20019;-83
2023/05/23 04:54:45;;;;;;;;;;;15.40;83.00;;;;;;5049091;28;19913;-84
2023/05/23 04:57:11;;;;;;;;;;;15.40;83.00;;;;;;5050344;28;19913;-84
2023/05/23 04:59:38;;;;;;;;;;;15.30;83.10;;;;;;5036417;28;19913;-87
2023/05/23 05:02:08;;;;;;;;;;;15.40;83.10;;;;;;5029558;28;19909;-85
2023/05/23 05:04:33;;;;;;;;;;;15.40;83.40;;;;;;5028943;28;19987;-84
2023/05/23 05:06:59;;;;;;;;;;;15.40;82.90;;;;;;5027171;28;20301;-83
2023/05/23 05:09:24;;;;;;;;;;;15.40;83.10;;;;;;5029393;28;19932;-84
2023/05/23 05:11:50;;;;;;;;;;;15.50;82.50;;;;;;5030738;28;19917;-80
2023/05/23 05:14:15;;;;;;;;;;;15.50;82.50;;;;;;5026854;28;20000;-82
2023/05/23 05:16:41;;;;;;;;;;;15.50;82.60;;;;;;5047367;28;20414;-80
2023/05/23 05:19:07;;;;;;;;;;;15.50;82.90;;;;;;5033601;28;19909;-83
2023/05/23 05:21:32;;;;;;;;;;;15.50;82.40;;;;;;5038559;28;19967;-82
2023/05/23 05:23:58;;;;;;;;;;;15.50;82.80;;;;;;5032036;28;19909;-81
2023/05/23 05:26:25;;;;;;;;;;;15.40;82.40;;;;;;5029453;28;19913;-80
2023/05/23 05:28:51;;;;;;;;;;;15.50;82.20;;;;;;5028467;28;19941;-81
2023/05/23 05:31:17;;;;;;;;;;;15.50;82.00;;;;;;5029908;28;20411;-81
2023/05/23 05:33:44;;;;;;;;;;;15.60;82.10;;;;;;5027047;28;19909;-80
2023/05/23 05:36:10;;;;;;;;;;;15.50;82.50;;;;;;5027309;28;19913;-79
2023/05/23 05:38:35;;;;;;;;;;;15.50;82.50;;;;;;5027859;28;20369;-80
2023/05/23 05:41:04;;;;;;;;;;;15.40;82.50;;;;;;5029277;28;19916;-85
2023/05/23 05:43:29;;;;;;;;;;;15.30;82.70;;;;;;5027466;28;19917;-84
2023/05/23 05:45:55;;;;;;;;;;;15.20;83.30;;;;;;5031438;28;19975;-83
2023/05/23 05:48:20;;;;;;;;;;;15.10;83.50;;;;;;5029944;28;19964;-82
2023/05/23 05:50:46;;;;;;;;;;;15.00;83.70;;;;;;5023842;28;19913;-84
2023/05/23 05:53:12;;;;;;;;;;;15.00;83.90;;;;;;5032316;28;20415;-85
2023/05/23 05:55:37;;;;;;;;;;;15.00;84.10;;;;;;5027853;28;19920;-85
2023/05/23 05:58:03;;;;;;;;;;;15.10;83.70;;;;;;5028538;28;19909;-81
2023/05/23 06:00:29;;;;;;;;;;;15.10;83.50;;;;;;5027260;28;20349;-85
2023/05/23 06:02:56;;;;;;;;;;;15.00;84.00;;;;;;5031904;28;19936;-83
2023/05/23 06:05:22;;;;;;;;;;;15.10;83.20;;;;;;5046008;28;19921;-83
2023/05/23 06:07:48;;;;;;;;;;;15.10;83.50;;;;;;5022598;28;19913;-84
2023/05/23 06:10:14;;;;;;;;;;;15.10;83.30;;;;;;5035636;28;19920;-84
2023/05/23 06:12:39;;;;;;;;;;;15.10;83.50;;;;;;5035517;28;19909;-82
2023/05/23 06:15:05;;;;;;;;;;;15.10;83.40;;;;;;5051551;28;19914;-84
2023/05/23 06:17:31;;;;;;;;;;;15.00;83.50;;;;;;5049354;28;19964;-83
2023/05/23 06:19:56;;;;;;;;;;;15.00;83.50;;;;;;5032252;28;19913;-84
2023/05/23 06:22:22;;;;;;;;;;;15.00;83.80;;;;;;5046441;28;19958;-82
2023/05/23 06:24:47;;;;;;;;;;;15.00;83.80;;;;;;5034564;28;19944;-82
2023/05/23 06:27:13;;;;;;;;;;;15.00;83.60;;;;;;5032817;28;19913;-81
2023/05/23 06:29:38;;;;;;;;;;;15.10;83.40;;;;;;5035430;28;20398;-84
2023/05/23 06:32:04;;;;;;;;;;;15.10;83.60;;;;;;5033906;28;19914;-80
2023/05/23 06:34:30;;;;;;;;;;;15.00;84.90;;;;;;5034014;28;19909;-81
2023/05/23 06:36:55;;;;;;;;;;;14.90;84.30;;;;;;5035927;28;20003;-83
2023/05/23 06:39:21;;;;;;;;;;;15.00;83.70;;;;;;5033676;28;19921;-82
2023/05/23 06:41:46;;;;;;;;;;;14.90;83.90;;;;;;5031095;28;19917;-81
2023/05/23 06:44:12;;;;;;;;;;;14.80;84.50;;;;;;5027328;28;19917;-81
2023/05/23 06:46:38;;;;;;;;;;;14.90;84.10;;;;;;5034127;28;19909;-80
2023/05/23 06:49:03;;;;;;;;;;;14.90;83.50;;;;;;5035757;28;19921;-82
2023/05/23 06:51:28;;;;;;;;;;;14.80;84.10;;;;;;5036118;28;19916;-80
2023/05/23 06:53:55;;;;;;;;;;;14.70;84.20;;;;;;5035588;28;19917;-81
2023/05/23 06:56:21;;;;;;;;;;;14.60;84.30;;;;;;5034729;28;19914;-81
2023/05/23 06:58:47;;;;;;;;;;;14.60;83.80;;;;;;5032036;28;19957;-81
2023/05/23 07:01:13;;;;;;;;;;;14.50;84.30;;;;;;5034987;28;19916;-82
2023/05/23 07:03:40;;;;;;;;;;;14.50;84.30;;;;;;5036250;28;20059;-81
2023/05/23 07:06:06;;;;;;;;;;;14.60;83.80;;;;;;5035481;28;19910;-81
2023/05/23 07:08:31;;;;;;;;;;;14.70;83.40;;;;;;5044461;28;20023;-82
2023/05/23 07:10:57;;;;;;;;;;;14.70;82.90;;;;;;5054886;28;19970;-80
2023/05/23 07:13:22;;;;;;;;;;;14.70;82.70;;;;;;5040114;28;19920;-82
2023/05/23 07:15:48;;;;;;;;;;;14.70;82.00;;;;;;5030360;28;19924;-83
2023/05/23 07:18:13;;;;;;;;;;;14.60;82.20;;;;;;5030046;28;19913;-82
2023/05/23 07:20:39;;;;;;;;;;;14.60;82.00;;;;;;5029284;28;19920;-80
2023/05/23 07:23:04;;;;;;;;;;;14.60;82.00;;;;;;5035961;28;19913;-82
2023/05/23 07:25:30;;;;;;;;;;;14.70;81.50;;;;;;5033192;28;19917;-80
2023/05/23 07:27:55;;;;;;;;;;;14.60;81.80;;;;;;5036059;28;19932;-79
2023/05/23 07:30:21;;;;;;;;;;;14.60;81.50;;;;;;5034051;28;19917;-83
2023/05/23 07:32:47;;;;;;;;;;;14.70;81.20;;;;;;5033728;28;19959;-83
2023/05/23 07:35:13;;;;;;;;;;;14.70;81.00;;;;;;5036944;28;20011;-83
2023/05/23 07:37:39;;;;;;;;;;;14.80;80.80;;;;;;5039904;28;20312;-84
2023/05/23 07:40:05;;;;;;;;;;;14.80;80.30;;;;;;5065743;28;19913;-82
2023/05/23 07:42:30;;;;;;;;;;;14.80;80.10;;;;;;5046506;28;19936;-80
2023/05/23 07:44:56;;;;;;;;;;;14.90;80.40;;;;;;5052246;28;19913;-80
2023/05/23 07:47:23;;;;;;;;;;;14.90;80.60;;;;;;5050738;28;19960;-83
2023/05/23 07:49:50;;;;;;;;;;;15.00;79.40;;;;;;5037540;28;19921;-80
2023/05/23 07:52:16;;;;;;;;;;;14.90;79.90;;;;;;5037075;28;19924;-81
2023/05/23 07:54:42;;;;;;;;;;;14.90;79.90;;;;;;5032585;28;19913;-82
2023/05/23 07:57:08;;;;;;;;;;;14.90;80.10;;;;;;5034716;28;19995;-82
2023/05/23 07:59:33;;;;;;;;;;;15.00;80.20;;;;;;5048266;28;19921;-81
2023/05/23 08:01:59;;;;;;;;;;;15.00;80.00;;;;;;5035479;28;19963;-81
2023/05/23 08:04:25;;;;;;;;;;;15.10;79.60;;;;;;5035650;28;19909;-81
2023/05/23 08:06:52;;;;;;;;;;;15.30;79.00;;;;;;5036136;28;19913;-82
2023/05/23 08:09:17;;;;;;;;;;;15.20;78.80;;;;;;5035319;28;19959;-82
2023/05/23 08:11:43;;;;;;;;;;;15.10;79.00;;;;;;5036245;28;19909;-81
2023/05/23 08:14:08;;;;;;;;;;;15.10;79.40;;;;;;5052431;28;20320;-82
2023/05/23 08:16:35;;;;;;;;;;;15.10;79.40;;;;;;5034232;28;19909;-83
2023/05/23 08:19:00;;;;;;;;;;;15.00;79.80;;;;;;5035082;28;20044;-84
2023/05/23 08:21:25;;;;;;;;;;;15.00;80.10;;;;;;5036349;28;19952;-83
2023/05/23 08:23:51;;;;;;;;;;;15.00;80.20;;;;;;5036767;28;19909;-80
2023/05/23 08:26:16;;;;;;;;;;;15.20;79.30;;;;;;5028779;28;20394;-81
2023/05/23 08:28:42;;;;;;;;;;;15.30;78.30;;;;;;5051033;28;19913;-81
2023/05/23 08:31:07;;;;;;;;;;;15.30;78.00;;;;;;5034104;28;19909;-81
2023/05/23 08:33:33;;;;;;;;;;;15.20;78.60;;;;;;5027389;28;19959;-82
2023/05/23 08:35:58;;;;;;;;;;;15.30;78.20;;;;;;5029491;28;20495;-81
2023/05/23 08:38:26;;;;;;;;;;;15.30;78.20;;;;;;5024296;28;20361;-80
2023/05/23 08:40:51;;;;;;;;;;;15.30;78.10;;;;;;5032599;28;19913;-81
2023/05/23 08:43:18;;;;;;;;;;;15.10;78.50;;;;;;5030753;28;19916;-80
2023/05/23 08:45:44;;;;;;;;;;;15.10;79.00;;;;;;5031563;28;20017;-81
2023/05/23 08:48:12;;;;;;;;;;;15.00;79.10;;;;;;5031452;28;20312;-80
2023/05/23 08:50:38;;;;;;;;;;;15.00;79.20;;;;;;5028771;28;20588;-81
2023/05/23 08:53:07;;;;;;;;;;;14.90;79.40;;;;;;5031380;28;19928;-81
2023/05/23 08:55:33;;;;;;;;;;;14.80;80.30;;;;;;5023570;28;20372;-81
2023/05/23 08:57:59;;;;;;;;;;;14.80;80.20;;;;;;5026541;28;19940;-81
2023/05/23 09:00:25;;;;;;;;;;;14.80;79.90;;;;;;5034985;28;19909;-82
2023/05/23 09:02:51;;;;;;;;;;;14.70;80.20;;;;;;5033172;28;19917;-83
2023/05/23 09:05:16;;;;;;;;;;;14.60;80.40;;;;;;5032720;28;20334;-83
2023/05/23 09:07:46;;;;;;;;;;;14.60;80.90;;;;;;5045613;28;19917;-83
2023/05/23 09:10:13;;;;;;;;;;;14.60;80.50;;;;;;5024518;28;19916;-79
2023/05/23 09:12:40;;;;;;;;;;;14.60;80.30;;;;;;5027241;28;20503;-82
2023/05/23 09:15:08;;;;;;;;;;;14.60;80.10;;;;;;5026969;28;20447;-81
2023/05/23 09:17:33;;;;;;;;;;;14.60;80.50;;;;;;5032784;28;19919;-82
2023/05/23 09:19:59;;;;;;;;;;;14.50;80.60;;;;;;5027772;28;20000;-79
2023/05/23 09:22:28;;;;;;;;;;;14.60;80.30;;;;;;5027214;28;19913;-79
2023/05/23 09:24:54;;;;;;;;;;;14.70;78.90;;;;;;5028822;28;19917;-81
2023/05/23 09:27:20;;;;;;;;;;;14.70;78.90;;;;;;5026360;28;19939;-82
2023/05/23 09:29:46;;;;;;;;;;;14.80;79.10;;;;;;5030365;28;19921;-81
2023/05/23 09:32:19;;;;;;;;;;;14.90;78.60;;;;;;5031023;28;19913;-82
2023/05/23 09:34:54;;;;;;;;;;;15.00;78.40;;;;;;5031075;28;19913;-83
2023/05/23 09:37:23;;;;;;;;;;;15.00;78.60;;;;;;5030340;28;19913;-82
2023/05/23 09:39:49;;;;;;;;;;;14.90;78.50;;;;;;5031922;28;19959;-82
2023/05/23 09:42:19;;;;;;;;;;;14.70;79.20;;;;;;5034046;28;20296;-82
2023/05/23 09:44:44;;;;;;;;;;;14.70;78.40;;;;;;5028802;28;19914;-83
2023/05/23 09:47:10;;;;;;;;;;;14.60;78.60;;;;;;5031851;28;19992;-83
2023/05/23 09:49:37;;;;;;;;;;;14.40;79.30;;;;;;5028922;28;20008;-78
2023/05/23 09:52:03;;;;;;;;;;;14.50;79.10;;;;;;5029578;28;19925;-79
2023/05/23 09:54:28;;;;;;;;;;;14.60;78.30;;;;;;5026831;28;19942;-80
2023/05/23 09:56:55;;;;;;;;;;;14.70;77.50;;;;;;5031451;28;19909;-79
2023/05/23 09:59:23;;;;;;;;;;;14.60;77.50;;;;;;5033073;28;19921;-80
2023/05/23 10:01:50;;;;;;;;;;;14.60;77.40;;;;;;5032286;28;19913;-81
2023/05/23 10:04:18;;;;;;;;;;;14.40;77.70;;;;;;5022972;28;19983;-78
2023/05/23 10:06:48;;;;;;;;;;;14.30;77.80;;;;;;5030822;28;19914;-79
2023/05/23 10:09:16;;;;;;;;;;;14.20;78.30;;;;;;5027514;28;19923;-81
2023/05/23 10:11:54;;;;;;;;;;;14.30;77.90;;;;;;5031961;28;20290;-79
2023/05/23 10:14:19;;;;;;;;;;;14.40;77.90;;;;;;5030862;28;19962;-80
2023/05/23 10:16:44;;;;;;;;;;;14.50;77.70;;;;;;5030341;28;20369;-83
2023/05/23 10:19:22;;;;;;;;;;;14.50;77.80;;;;;;5028033;28;20011;-79
2023/05/23 10:21:58;;;;;;;;;;;14.70;76.90;;;;;;5032589;28;19917;-80
2023/05/23 10:24:24;;;;;;;;;;;14.50;77.60;;;;;;5026722;28;19909;-82
2023/05/23 10:26:50;;;;;;;;;;;14.40;77.90;;;;;;5031634;28;19970;-80
2023/05/23 10:29:15;;;;;;;;;;;14.10;78.00;;;;;;5030851;28;19963;-80
2023/05/23 10:31:41;;;;;;;;;;;14.00;78.10;;;;;;5031054;28;20569;-81
2023/05/23 10:34:06;;;;;;;;;;;13.70;78.20;;;;;;5032411;28;20134;-80
2023/05/23 10:36:52;;;;;;;;;;;13.80;77.60;;;;;;5030662;28;19913;-80
2023/05/23 10:39:43;;;;;;;;;;;13.90;77.60;;;;;;5035084;28;19988;-80
2023/05/23 10:42:12;;;;;;;;;;;13.90;77.90;;;;;;5024835;28;19914;-81
2023/05/23 10:44:37;;;;;;;;;;;14.10;76.70;;;;;;5031558;28;20199;-79
2023/05/23 10:47:03;;;;;;;;;;;14.30;76.00;;;;;;5043355;28;19913;-80
2023/05/23 10:49:42;;;;;;;;;;;14.20;75.90;;;;;;5041671;28;19917;-80
2023/05/23 10:52:08;;;;;;;;;;;14.20;75.40;;;;;;5057428;23;19932;-86
2023/05/23 10:54:48;;;;;;;;;;;14.10;76.30;;;;;;5044902;28;20031;-85
2023/05/23 10:57:18;;;;;;;;;;;14.20;76.40;;;;;;5071943;28;19921;-86
2023/05/23 10:59:44;;;;;;;;;;;14.60;74.00;;;;;;5056437;28;20370;-85
2023/05/23 11:02:14;;;;;;;;;;;14.80;73.80;;;;;;5063910;28;20374;-85
2023/05/23 11:04:41;;;;;;;;;;;15.20;72.50;;;;;;5054630;28;19917;-86
2023/05/23 11:07:26;;;;;;;;;;;15.20;72.50;;;;;;5057403;28;20430;-84
2023/05/23 11:10:02;;;;;;;;;;;15.10;70.60;;;;;;5049389;28;19966;-85
2023/05/23 11:12:38;;;;;;;;;;;15.20;71.10;;;;;;5051043;28;19966;-85
2023/05/23 11:15:20;;;;;;;;;;;15.10;70.60;;;;;;5050382;28;19960;-86
2023/05/23 11:17:50;;;;;;;;;;;15.00;70.50;;;;;;5053808;28;19913;-85
2023/05/23 11:20:21;;;;;;;;;;;15.00;71.80;;;;;;5053047;28;20390;-84
2023/05/23 11:22:57;;;;;;;;;;;15.00;71.30;;;;;;5051987;28;19917;-85
2023/05/23 11:25:37;;;;;;;;;;;15.10;69.90;;;;;;5044947;28;19913;-85
2023/05/23 11:28:04;;;;;;;;;;;15.00;69.90;;;;;;5054513;28;19909;-85
2023/05/23 11:30:30;;;;;;;;;;;15.00;69.60;;;;;;5056394;28;19961;-85
2023/05/23 11:32:56;;;;;;;;;;;14.80;69.40;;;;;;5054432;28;20371;-85
2023/05/23 11:35:21;;;;;;;;;;;14.70;69.40;;;;;;5044144;28;19917;-85
2023/05/23 11:37:47;;;;;;;;;;;14.70;69.60;;;;;;5061281;28;19920;-84
2023/05/23 11:40:36;;;;;;;;;;;14.80;69.60;;;;;;5076001;28;19917;-85
2023/05/23 11:43:03;;;;;;;;;;;15.00;68.90;;;;;;5045641;28;19912;-85
2023/05/23 11:45:30;;;;;;;;;;;15.20;68.40;;;;;;5054662;28;20689;-85
2023/05/23 11:47:56;;;;;;;;;;;15.10;68.20;;;;;;5055286;28;19920;-85
2023/05/23 11:50:23;;;;;;;;;;;15.00;69.70;;;;;;5051948;28;19913;-83
2023/05/23 11:52:52;;;;;;;;;;;15.00;69.70;;;;;;5055162;28;19923;-83
2023/05/23 11:55:21;;;;;;;;;;;15.00;69.60;;;;;;5071810;28;19913;-83
2023/05/23 11:57:47;;;;;;;;;;;15.10;69.10;;;;;;5055839;28;19908;-84
2023/05/23 12:00:12;;;;;;;;;;;15.20;68.50;;;;;;5059712;28;19947;-83
2023/05/23 12:02:39;;;;;;;;;;;15.40;66.90;;;;;;5072804;28;20337;-84
2023/05/23 12:05:15;;;;;;;;;;;15.30;67.00;;;;;;5050469;28;19913;-84
2023/05/23 12:07:49;;;;;;;;;;;15.40;67.80;;;;;;5052386;28;19908;-83
2023/05/23 12:10:15;;;;;;;;;;;15.90;65.20;;;;;;5052815;28;19917;-83
2023/05/23 12:12:44;;;;;;;;;;;15.90;65.70;;;;;;5053112;28;19912;-83
2023/05/23 12:15:10;;;;;;;;;;;16.00;63.80;;;;;;5053939;28;20435;-84
2023/05/23 12:17:36;;;;;;;;;;;16.10;63.90;;;;;;5052062;28;19916;-85
2023/05/23 12:20:03;;;;;;;;;;;16.10;63.60;;;;;;5047259;28;19913;-85
2023/05/23 12:22:28;;;;;;;;;;;16.10;64.60;;;;;;5047449;28;19971;-84
2023/05/23 12:24:57;;;;;;;;;;;16.30;63.40;;;;;;5041207;28;19960;-85
2023/05/23 12:27:36;;;;;;;;;;;16.20;63.20;;;;;;5050909;28;19912;-85
2023/05/23 12:30:06;;;;;;;;;;;16.40;64.40;;;;;;5048974;28;19916;-85
2023/05/23 12:32:32;;;;;;;;;;;16.40;62.80;;;;;;5049961;28;19921;-85
2023/05/23 12:34:57;;;;;;;;;;;16.20;62.30;;;;;;5054634;28;19925;-85
2023/05/23 12:37:23;;;;;;;;;;;16.00;63.80;;;;;;5051417;28;19913;-84
2023/05/23 12:39:48;;;;;;;;;;;16.10;64.40;;;;;;5044353;28;20374;-85
2023/05/23 12:42:14;;;;;;;;;;;16.10;61.80;;;;;;5044553;28;19982;-84
2023/05/23 12:44:44;;;;;;;;;;;16.00;60.80;;;;;;5051873;28;19955;-85
2023/05/23 12:47:10;;;;;;;;;;;16.20;59.60;;;;;;5042028;28;19917;-85
2023/05/23 12:49:43;;;;;;;;;;;16.10;60.10;;;;;;5053155;28;20293;-86
2023/05/23 12:52:29;;;;;;;;;;;16.10;59.80;;;;;;5045633;28;19928;-85
2023/05/23 12:54:58;;;;;;;;;;;16.10;58.90;;;;;;5049676;28;20251;-84
2023/05/23 12:57:24;;;;;;;;;;;16.10;59.30;;;;;;5052789;28;19919;-85
2023/05/23 12:59:49;;;;;;;;;;;16.30;58.50;;;;;;5049393;28;20293;-84
2023/05/23 13:02:15;;;;;;;;;;;16.50;57.60;;;;;;5050629;28;19928;-84
2023/05/23 13:04:41;;;;;;;;;;;16.60;56.90;;;;;;5050925;28;19943;-84
2023/05/23 13:07:06;;;;;;;;;;;16.50;58.70;;;;;;5052068;28;19920;-85
2023/05/23 13:09:32;;;;;;;;;;;16.60;58.40;;;;;;5041346;28;20014;-84
2023/05/23 13:12:06;;;;;;;;;;;16.50;57.30;;;;;;5051307;28;19912;-85
2023/05/23 13:14:32;;;;;;;;;;;16.50;57.60;;;;;;5052233;28;20172;-84
2023/05/23 13:17:01;;;;;;;;;;;16.40;56.80;;;;;;5052149;28;19912;-85
2023/05/23 13:19:26;;;;;;;;;;;16.30;56.20;;;;;;5051593;28;19941;-84
2023/05/23 13:21:52;;;;;;;;;;;16.30;55.80;;;;;;5049662;28;20268;-86
2023/05/23 13:24:18;;;;;;;;;;;16.20;56.60;;;;;;5052794;28;19913;-84
2023/05/23 13:26:43;;;;;;;;;;;16.40;55.90;;;;;;5050425;28;19913;-84
2023/05/23 13:29:11;;;;;;;;;;;16.60;55.80;;;;;;5051404;28;19928;-85
2023/05/23 13:31:37;;;;;;;;;;;16.90;55.10;;;;;;5053799;28;19916;-85
2023/05/23 13:34:03;;;;;;;;;;;17.00;55.50;;;;;;5040137;28;20306;-86
2023/05/23 13:36:28;;;;;;;;;;;17.10;54.50;;;;;;5041801;28;19912;-86
2023/05/23 13:38:54;;;;;;;;;;;17.10;54.60;;;;;;5044491;28;20004;-88
2023/05/23 13:41:19;;;;;;;;;;;17.10;55.00;;;;;;5065435;23;19929;-79
2023/05/23 13:43:45;;;;;;;;;;;17.30;54.60;;;;;;5019484;28;19922;-81
2023/05/23 13:46:11;;;;;;;;;;;17.10;54.80;;;;;;5025357;28;19980;-79
2023/05/23 13:48:36;;;;;;;;;;;17.10;53.90;;;;;;5022333;28;19987;-81
2023/05/23 13:51:02;;;;;;;;;;;16.80;54.70;;;;;;5030808;28;19936;-80
2023/05/23 13:53:27;;;;;;;;;;;16.80;55.30;;;;;;5025335;28;19935;-81
2023/05/23 13:55:53;;;;;;;;;;;16.70;55.10;;;;;;5030134;28;19913;-79
2023/05/23 13:58:19;;;;;;;;;;;16.80;54.60;;;;;;5005411;28;19974;-81
2023/05/23 14:00:46;;;;;;;;;;;17.00;53.60;;;;;;5023178;28;19943;-80
2023/05/23 14:03:11;;;;;;;;;;;17.00;54.00;;;;;;5022521;28;19925;-80
2023/05/23 14:05:37;;;;;;;;;;;17.10;55.00;;;;;;5027394;28;19913;-80
2023/05/23 14:08:03;;;;;;;;;;;17.00;54.20;;;;;;5008863;28;20008;-81
2023/05/23 14:10:29;;;;;;;;;;;17.00;54.20;;;;;;5025056;28;20428;-80
2023/05/23 14:12:54;;;;;;;;;;;16.90;54.70;;;;;;5025880;28;19936;-80
2023/05/23 14:15:20;;;;;;;;;;;16.90;54.30;;;;;;5026530;28;19913;-80